createdAt,value
2022-09-09T00:00:50.542Z,95591.09
2022-09-09T00:06:52.279Z,95588.14
2022-09-09T00:09:24.216Z,95584.12
2022-09-09T00:11:59.525Z,95590.70
2022-09-09T00:36:35.789Z,95563.20
2022-09-09T00:42:48.313Z,95548.97
2022-09-09T00:45:23.053Z,95550.16
2022-09-09T00:47:56.074Z,95541.31
2022-09-09T01:01:52.121Z,95546.20
2022-09-09T01:04:24.004Z,95548.72
2022-09-09T01:06:56.006Z,95545.28
2022-09-09T01:22:29.700Z,95522.17
2022-09-09T01:24:33.674Z,95557.13
2022-09-09T01:27:05.508Z,95560.60
2022-09-09T01:40:10.081Z,95556.33
2022-09-09T01:42:41.575Z,95559.38
2022-09-09T03:17:31.557Z,95574.71
2022-09-09T03:20:37.400Z,95576.63
2022-09-09T03:22:50.234Z,95576.45
2022-09-09T03:25:20.562Z,95574.67
2022-09-09T03:27:58.213Z,95570.86
2022-09-09T03:30:32.391Z,95564.91
2022-09-09T03:33:05.386Z,95568.56
2022-09-09T03:36:01.477Z,95573.77
2022-09-09T03:38:33.807Z,95572.42
2022-09-09T03:41:05.920Z,95549.64
2022-09-09T03:43:34.946Z,95567.45
2022-09-09T03:52:13.359Z,95564.94
2022-09-09T03:54:45.751Z,95575.33
2022-09-09T03:57:18.692Z,95576.45
2022-09-09T04:02:41.341Z,95575.91
2022-09-09T04:11:44.847Z,95579.72
2022-09-09T04:14:15.495Z,95584.31
2022-09-09T04:19:35.426Z,95576.16
2022-09-09T04:22:25.494Z,95570.42
2022-09-09T04:25:00.242Z,95570.20
2022-09-09T04:27:48.036Z,95575.17
2022-09-09T04:53:19.242Z,95586.64
2022-09-09T04:58:13.096Z,95575.18
2022-09-09T05:00:42.158Z,95567.52
2022-09-09T05:03:13.430Z,95566.64
2022-09-09T05:06:21.700Z,95574.58
2022-09-09T05:09:05.770Z,95570.98
2022-09-09T05:11:47.781Z,95561.98
2022-09-09T05:14:19.491Z,95554.92
2022-09-09T05:16:48.642Z,95556.92
2022-09-09T05:19:23.830Z,95556.22
2022-09-09T05:21:52.403Z,95577.23
2022-09-09T05:31:23.822Z,95561.11
2022-09-09T05:34:03.726Z,95557.20
2022-09-09T05:36:37.034Z,95557.37
2022-09-09T05:39:09.047Z,95550.41
2022-09-09T05:41:41.323Z,95559.92
2022-09-09T05:44:20.894Z,95560.45
2022-09-09T05:46:55.810Z,95563.46
2022-09-09T05:49:37.935Z,95565.26
2022-09-09T05:55:51.703Z,95561.98
2022-09-09T06:02:14.918Z,95567.91
2022-09-09T06:14:15.423Z,95583.02
2022-09-09T06:20:04.342Z,95581.58
2022-09-09T06:22:39.050Z,95581.32
2022-09-09T06:25:12.184Z,95583.06
2022-09-09T06:27:43.202Z,95581.88
2022-09-09T06:30:16.001Z,95592.61
2022-09-09T06:32:44.908Z,95592.38
2022-09-09T06:35:15.707Z,95598.73
2022-09-09T06:37:50.142Z,95582.16
2022-09-09T06:40:21.124Z,95583.61
2022-09-09T06:42:51.701Z,95571.73
2022-09-09T06:45:24.191Z,95569.53
2022-09-09T06:47:53.912Z,95567.27
2022-09-09T06:50:28.632Z,95561.63
2022-09-09T06:52:56.090Z,95561.34
2022-09-09T06:55:24.399Z,95572.97
2022-09-09T06:57:53.360Z,95579.87
2022-09-09T07:00:23.610Z,95583.78
2022-09-09T07:02:53.686Z,95582.00
2022-09-09T07:05:24.062Z,95584.31
2022-09-09T07:07:53.444Z,95587.80
2022-09-09T07:10:22.098Z,95585.63
2022-09-09T07:12:55.888Z,95582.90
2022-09-09T07:15:24.644Z,95577.95
2022-09-09T07:17:54.245Z,95574.56
2022-09-09T07:20:23.301Z,95577.99
2022-09-09T07:22:53.970Z,95577.50
2022-09-09T07:25:23.008Z,95555.88
2022-09-09T07:27:52.534Z,95580.23
2022-09-09T07:30:26.936Z,95571.32
2022-09-09T07:32:54.024Z,95565.87
2022-09-09T07:35:25.463Z,95562.39
2022-09-09T07:37:54.180Z,95563.83
2022-09-09T07:40:23.574Z,95556.20
2022-09-09T07:42:54.661Z,95549.81
2022-09-09T07:45:23.933Z,95562.46
2022-09-09T07:47:56.133Z,95561.66
2022-09-09T07:50:26.263Z,95570.92
2022-09-09T07:52:57.655Z,95565.25
2022-09-09T07:55:29.751Z,95569.45
2022-09-09T07:57:59.006Z,95567.91
2022-09-09T08:00:29.510Z,95568.62
2022-09-09T08:03:02.837Z,95567.77
2022-09-09T08:05:32.214Z,95556.97
2022-09-09T08:08:02.620Z,95549.99
2022-09-09T08:10:31.234Z,95562.81
2022-09-09T08:13:17.226Z,95560.03
2022-09-09T08:15:32.935Z,95560.91
2022-09-09T08:18:05.558Z,95551.03
2022-09-09T08:20:34.257Z,95554.25
2022-09-09T08:23:02.922Z,95556.40
2022-09-09T08:25:33.387Z,95555.34
2022-09-09T08:28:02.784Z,95555.19
2022-09-09T08:30:33.766Z,95556.69
2022-09-09T08:33:02.591Z,95557.24
2022-09-09T08:35:33.661Z,95554.50
2022-09-09T08:38:04.606Z,95549.02
2022-09-09T08:40:37.978Z,95545.38
2022-09-09T08:43:08.393Z,95547.84
2022-09-09T08:45:43.375Z,95553.04
2022-09-09T08:48:39.719Z,95546.98
2022-09-09T08:51:09.686Z,95544.30
2022-09-09T08:53:59.757Z,95532.22
2022-09-09T08:56:27.478Z,95540.34
2022-09-09T08:58:58.512Z,95540.74
2022-09-09T09:01:46.948Z,95542.62
2022-09-09T09:04:46.132Z,95538.19
2022-09-09T09:07:22.459Z,95537.64
2022-09-09T09:10:40.403Z,95537.50
2022-09-09T09:12:54.169Z,95541.38
2022-09-09T09:15:30.753Z,95537.13
2022-09-09T09:18:00.704Z,95544.09
2022-09-09T09:20:47.528Z,95532.11
2022-09-09T09:23:19.290Z,95532.44
2022-09-09T09:25:50.125Z,95529.67
2022-09-09T09:28:29.527Z,95532.58
2022-09-09T09:31:09.948Z,95529.23
2022-09-09T09:33:45.826Z,95532.53
2022-09-09T09:36:23.988Z,95539.12
2022-09-09T09:42:34.484Z,95523.08
2022-09-09T09:45:28.924Z,95528.66
2022-09-09T09:48:14.006Z,95529.27
2022-09-09T09:51:11.395Z,95520.81
2022-09-09T09:53:40.816Z,95514.88
2022-09-09T09:56:15.485Z,95519.94
2022-09-09T09:58:52.798Z,95512.07
2022-09-09T10:01:31.147Z,95506.39
2022-09-09T10:04:07.657Z,95509.50
2022-09-09T10:06:43.802Z,95505.83
2022-09-09T10:09:33.939Z,95508.12
2022-09-09T10:12:11.550Z,95486.24
2022-09-09T10:15:16.884Z,95521.14
2022-09-09T10:17:55.265Z,95520.53
2022-09-09T10:20:26.898Z,95520.08
2022-09-09T10:25:46.919Z,95520.48
2022-09-09T10:28:36.944Z,95519.56
2022-09-09T10:31:29.212Z,95517.53
2022-09-09T10:34:20.270Z,95525.83
2022-09-09T10:37:25.278Z,95520.76
2022-09-09T10:40:05.639Z,95520.27
2022-09-09T10:42:43.568Z,95518.86
2022-09-09T10:45:35.289Z,95525.25
2022-09-09T10:48:27.092Z,95526.24
2022-09-09T10:51:03.530Z,95529.28
2022-09-09T10:54:14.021Z,95525.43
2022-09-09T10:59:46.341Z,95528.31
2022-09-09T11:02:31.338Z,95527.05
2022-09-09T11:05:07.728Z,95520.19
2022-09-09T11:07:48.846Z,95521.97
2022-09-09T11:10:37.240Z,95522.30
2022-09-09T11:13:09.021Z,95520.45
2022-09-09T11:15:58.700Z,95528.58
2022-09-09T11:18:29.174Z,95519.73
2022-09-09T11:21:04.856Z,95513.64
2022-09-09T11:23:43.116Z,95510.96
2022-09-09T11:26:18.283Z,95511.46
2022-09-09T11:29:06.784Z,95503.89
2022-09-09T11:31:59.627Z,95507.93
2022-09-09T11:34:55.420Z,95503.64
2022-09-09T11:37:27.391Z,95492.83
2022-09-09T11:40:15.630Z,95482.83
2022-09-09T11:42:48.238Z,95476.61
2022-09-09T11:45:32.369Z,95471.19
2022-09-09T11:48:05.234Z,95464.11
2022-09-09T11:50:37.748Z,95458.32
2022-09-09T11:53:26.450Z,95452.82
2022-09-09T11:56:04.982Z,95436.08
2022-09-09T11:58:42.882Z,95427.61
2022-09-09T12:01:20.389Z,95432.84
2022-09-09T12:03:55.216Z,95447.05
2022-09-09T12:06:33.652Z,95443.84
2022-09-09T12:09:27.142Z,95449.59
2022-09-09T12:11:59.152Z,95447.33
2022-09-09T12:14:41.715Z,95437.05
2022-09-09T12:17:22.431Z,95437.05
2022-09-09T12:20:11.964Z,95418.80
2022-09-09T12:22:55.470Z,95425.19
2022-09-09T12:25:42.347Z,95405.88
2022-09-09T12:28:29.385Z,95418.39
2022-09-09T12:31:34.065Z,95363.53
2022-09-09T12:34:06.098Z,95420.89
2022-09-09T12:36:35.718Z,95412.02
2022-09-09T12:39:26.105Z,95409.64
2022-09-09T12:41:59.906Z,95406.56
2022-09-09T12:44:35.147Z,95403.20
2022-09-09T12:47:07.171Z,95396.98
2022-09-09T12:49:46.500Z,95399.47
2022-09-09T12:52:37.020Z,95393.98
2022-09-09T12:55:09.780Z,95393.84
2022-09-09T12:57:46.329Z,95397.39
2022-09-09T13:00:18.264Z,95391.69
2022-09-09T13:02:56.635Z,95384.09
2022-09-09T13:05:28.238Z,95383.59
2022-09-09T13:08:08.490Z,95380.73
2022-09-09T13:10:53.642Z,95380.11
2022-09-09T13:13:25.609Z,95376.92
2022-09-09T13:15:57.362Z,95374.20
2022-09-09T13:18:36.395Z,95369.27
2022-09-09T13:21:05.326Z,95373.69
2022-09-09T13:23:36.980Z,95371.77
2022-09-09T13:26:26.979Z,95368.91
2022-09-09T13:29:23.100Z,95362.75
2022-09-09T13:31:53.807Z,95344.73
2022-09-09T13:34:38.485Z,95343.70
2022-09-09T13:37:13.002Z,95344.09
2022-09-09T13:39:41.917Z,95347.28
2022-09-09T13:42:16.605Z,95354.69
2022-09-09T13:44:50.960Z,95356.39
2022-09-09T13:47:26.380Z,95340.83
2022-09-09T13:49:55.184Z,95333.48
2022-09-09T13:52:25.151Z,95332.39
2022-09-09T13:54:55.504Z,95332.25
2022-09-09T13:57:26.407Z,95334.59
2022-09-09T14:00:05.213Z,95331.77
2022-09-09T14:02:29.603Z,95327.61
2022-09-09T14:04:58.295Z,95322.59
2022-09-09T14:07:27.039Z,95319.09
2022-09-09T14:10:00.341Z,95322.54
2022-09-09T14:12:30.637Z,95332.18
2022-09-09T14:15:02.377Z,95323.34
2022-09-09T14:17:32.380Z,95323.56
2022-09-09T14:20:01.138Z,95321.88
2022-09-09T14:22:34.143Z,95314.63
2022-09-09T14:25:05.681Z,95324.28
2022-09-09T14:27:34.283Z,95314.02
2022-09-09T14:30:05.075Z,95311.96
2022-09-09T14:32:35.151Z,95317.98
2022-09-09T14:35:03.999Z,95310.67
2022-09-09T14:37:34.184Z,95324.64
2022-09-09T14:40:02.989Z,95318.91
2022-09-09T14:42:33.113Z,95312.48
2022-09-09T14:45:02.061Z,95306.32
2022-09-09T14:47:32.140Z,95301.28
2022-09-09T14:50:08.226Z,95305.34
2022-09-09T14:52:37.406Z,95308.45
2022-09-09T14:55:07.263Z,95315.81
2022-09-09T14:57:36.766Z,95305.21
2022-09-09T15:00:07.315Z,95304.88
2022-09-09T15:02:36.029Z,95308.80
2022-09-09T15:05:07.933Z,95309.96
2022-09-09T15:20:08.931Z,95331.25
2022-09-09T15:22:38.409Z,95327.07
2022-09-09T15:25:07.505Z,95327.02
2022-09-09T15:27:38.709Z,95321.44
2022-09-09T15:30:08.141Z,95326.07
2022-09-09T15:32:36.945Z,95321.99
2022-09-09T15:35:05.848Z,95318.97
2022-09-09T15:37:34.613Z,95317.23
2022-09-09T15:40:03.698Z,95318.52
2022-09-09T15:42:32.339Z,95317.83
2022-09-09T15:45:01.272Z,95317.73
2022-09-09T15:47:29.842Z,95318.18
2022-09-09T15:50:00.855Z,95310.23
2022-09-09T15:52:29.995Z,95305.26
2022-09-09T15:54:59.284Z,95304.58
2022-09-09T15:57:29.523Z,95305.30
2022-09-09T16:00:01.082Z,95303.23
2022-09-09T16:02:29.791Z,95303.81
2022-09-09T16:04:58.418Z,95298.41
2022-09-09T16:10:22.610Z,95298.30
2022-09-09T16:12:53.702Z,95304.05
2022-09-09T16:15:24.146Z,95294.38
2022-09-09T16:17:57.015Z,95303.03
2022-09-09T16:20:26.562Z,95301.50
2022-09-09T16:22:55.182Z,95304.83
2022-09-09T16:25:23.790Z,95306.94
2022-09-09T16:27:56.792Z,95299.69
2022-09-09T16:30:25.368Z,95299.81
2022-09-09T16:32:54.109Z,95302.22
2022-09-09T16:35:24.228Z,95303.12
2022-09-09T16:37:56.509Z,95301.39
2022-09-09T16:43:18.864Z,95308.12
2022-09-09T16:45:51.672Z,95315.98
2022-09-09T16:48:22.078Z,95317.60
2022-09-09T16:50:55.459Z,95292.98
2022-09-09T16:53:26.318Z,95307.78
2022-09-09T16:56:11.972Z,95307.06
2022-09-09T16:58:41.057Z,95305.67
2022-09-09T17:01:47.386Z,95301.94
2022-09-09T17:06:44.631Z,95306.30
2022-09-09T17:12:48.318Z,95310.12
2022-09-09T17:18:30.569Z,95314.41
2022-09-09T17:21:23.319Z,95319.30
2022-09-09T17:26:50.780Z,95313.77
2022-09-09T17:29:19.822Z,95319.89
2022-09-09T17:31:48.480Z,95321.05
2022-09-09T17:34:19.797Z,95316.98
2022-09-09T17:36:49.203Z,95325.62
2022-09-09T17:39:19.427Z,95324.88
2022-09-09T17:41:50.087Z,95327.69
2022-09-09T17:44:23.546Z,95332.27
2022-09-09T17:46:52.378Z,95336.09
2022-09-09T17:49:22.246Z,95339.56
2022-09-09T17:51:59.832Z,95337.91
2022-09-09T17:54:28.495Z,95352.50
2022-09-09T17:56:58.688Z,95354.45
2022-09-09T17:59:29.006Z,95355.16
2022-09-09T18:01:58.179Z,95363.31
2022-09-09T18:04:26.959Z,95367.45
2022-09-09T18:06:55.792Z,95370.92
2022-09-09T18:09:27.390Z,95369.28
2022-09-09T18:11:59.776Z,95373.35
2022-09-09T18:14:34.837Z,95377.73
2022-09-09T18:17:04.621Z,95378.62
2022-09-09T18:19:34.641Z,95387.53
2022-09-09T18:22:05.746Z,95385.18
2022-09-09T18:24:36.280Z,95385.89
2022-09-09T18:27:05.028Z,95384.66
2022-09-09T18:29:34.435Z,95388.17
2022-09-09T18:32:08.236Z,95390.30
2022-09-09T18:34:37.018Z,95388.98
2022-09-09T18:37:07.372Z,95400.31
2022-09-09T18:39:39.143Z,95409.28
2022-09-09T18:45:17.215Z,95403.44
2022-09-09T18:47:46.023Z,95405.41
2022-09-09T18:50:15.219Z,95407.36
2022-09-09T18:52:43.935Z,95402.80
2022-09-09T18:55:12.763Z,95417.43
2022-09-09T18:57:41.889Z,95336.48
2022-09-09T19:00:12.407Z,95413.20
2022-09-09T19:02:44.048Z,95405.51
2022-09-09T19:05:15.752Z,95407.98
2022-09-09T19:07:47.335Z,95398.95
2022-09-09T19:10:18.624Z,95397.64
2022-09-09T19:12:49.490Z,95392.39
2022-09-09T19:15:18.553Z,95394.30
2022-09-09T19:17:47.706Z,95392.58
2022-09-09T19:20:16.554Z,95385.99
2022-09-09T19:22:45.525Z,95388.97
2022-09-09T19:25:14.216Z,95387.61
2022-09-09T19:27:48.587Z,95387.01
2022-09-09T19:30:21.882Z,95383.52
2022-09-09T19:33:07.466Z,95384.30
2022-09-09T19:38:46.070Z,95380.35
2022-09-09T19:41:18.379Z,95371.76
2022-09-09T19:43:48.166Z,95373.95
2022-09-09T19:46:18.924Z,95369.93
2022-09-09T19:48:48.526Z,95369.59
2022-09-09T19:51:20.761Z,95369.28
2022-09-09T19:53:56.553Z,95369.22
2022-09-09T19:56:28.046Z,95360.58
2022-09-09T19:58:57.496Z,95356.66
2022-09-09T20:01:30.402Z,95350.22
2022-09-09T20:04:01.312Z,95348.52
2022-09-09T20:06:33.840Z,95348.30
2022-09-09T20:09:08.931Z,95346.14
2022-09-09T20:11:42.949Z,95340.52
2022-09-09T20:14:12.943Z,95342.36
2022-09-09T20:16:45.842Z,95334.91
2022-09-09T20:19:19.386Z,95333.63
2022-09-09T20:21:52.620Z,95341.54
2022-09-09T20:24:24.090Z,95335.80
2022-09-09T20:26:53.697Z,95332.73
2022-09-09T20:29:22.468Z,95331.05
2022-09-09T20:31:51.284Z,95334.97
2022-09-09T20:34:25.922Z,95339.53
2022-09-09T20:36:55.746Z,95342.84
2022-09-09T20:39:26.245Z,95341.11
2022-09-09T20:41:57.318Z,95343.52
2022-09-09T20:44:31.399Z,95344.21
2022-09-09T20:49:52.529Z,95342.50
2022-09-09T20:52:22.981Z,95340.23
2022-09-09T20:54:55.635Z,95344.23
2022-09-09T20:57:24.928Z,95345.65
2022-09-09T20:59:53.712Z,95348.36
2022-09-09T21:02:25.253Z,95341.95
2022-09-09T21:04:54.246Z,95344.32
2022-09-09T21:07:24.571Z,95345.08
2022-09-09T21:10:01.221Z,95348.27
2022-09-09T21:12:30.452Z,95353.62
2022-09-09T21:15:00.745Z,95351.11
2022-09-09T21:17:32.230Z,95348.40
2022-09-09T21:20:05.217Z,95353.13
2022-09-09T21:22:34.053Z,95357.44
2022-09-09T21:25:03.598Z,95353.58
2022-09-09T21:27:32.187Z,95359.44
2022-09-09T21:30:02.420Z,95358.12
2022-09-09T21:32:31.007Z,95354.09
2022-09-09T21:34:59.730Z,95348.16
2022-09-09T21:37:32.924Z,95347.12
2022-09-09T21:40:04.563Z,95352.92
2022-09-09T21:42:34.964Z,95350.75
2022-09-09T21:45:03.664Z,95353.97
2022-09-09T21:47:32.261Z,95360.22
2022-09-09T21:50:03.760Z,95361.35
2022-09-09T21:52:32.501Z,95363.77
2022-09-09T21:55:02.541Z,95361.06
2022-09-09T21:57:31.376Z,95359.80
2022-09-09T22:00:04.061Z,95360.48
2022-09-09T22:02:37.358Z,95353.03
2022-09-09T22:05:06.558Z,95349.57
2022-09-09T22:07:37.372Z,95348.00
2022-09-09T22:10:07.313Z,95345.72
2022-09-09T22:12:48.393Z,95348.33
2022-09-09T22:15:21.879Z,95347.64
2022-09-09T22:17:50.970Z,95351.80
2022-09-09T22:20:19.732Z,95342.84
2022-09-09T22:22:54.231Z,95336.92
2022-09-09T22:25:25.903Z,95343.33
2022-09-09T22:28:01.612Z,95340.63
2022-09-09T22:30:30.659Z,95338.43
2022-09-09T22:33:02.104Z,95337.35
2022-09-09T22:35:30.892Z,95332.09
2022-09-09T22:38:02.224Z,95334.45
2022-09-09T22:40:31.007Z,95340.80
2022-09-09T22:42:59.726Z,95339.61
2022-09-09T22:45:28.390Z,95339.16
2022-09-09T22:47:57.127Z,95332.30
2022-09-09T22:50:27.998Z,95328.16
2022-09-09T22:52:56.758Z,95327.38
2022-09-09T22:55:26.801Z,95338.16
2022-09-09T22:57:57.003Z,95336.56
2022-09-09T23:00:30.675Z,95333.20
2022-09-09T23:03:01.482Z,95329.64
2022-09-09T23:05:31.760Z,95328.44
2022-09-09T23:08:00.386Z,95329.22
2022-09-09T23:10:30.690Z,95327.61
2022-09-09T23:12:59.415Z,95326.95
2022-09-09T23:15:31.472Z,95331.33
2022-09-09T23:18:00.536Z,95328.27
2022-09-09T23:20:29.585Z,95326.58
2022-09-09T23:22:58.330Z,95327.13
2022-09-09T23:25:28.309Z,95318.48
2022-09-09T23:28:00.140Z,95314.48
2022-09-09T23:30:30.055Z,95318.33
2022-09-09T23:32:59.899Z,95312.91
2022-09-09T23:35:28.713Z,95306.49
2022-09-09T23:37:58.955Z,95298.02
2022-09-09T23:40:30.337Z,95291.48
2022-09-09T23:43:00.949Z,95294.44
2022-09-09T23:45:31.010Z,95296.66
2022-09-09T23:47:59.597Z,95294.62
2022-09-09T23:50:28.399Z,95294.48
2022-09-09T23:52:58.582Z,95294.05
2022-09-09T23:55:27.231Z,95289.66
2022-09-09T23:57:59.415Z,95279.94
